createdAt,value
2023-03-29T10:49:08.575Z,1005.1
2023-03-29T10:54:08.725Z,1005
2023-03-29T10:59:06.463Z,1004.9
2023-03-29T11:04:06.655Z,1004.7
2023-03-29T11:09:05.912Z,1004.8
2023-03-29T11:14:09.270Z,1004.7
2023-03-29T11:19:03.142Z,1004.9
2023-03-29T11:24:02.827Z,1005
2023-03-29T11:29:02.349Z,1005.1
2023-03-29T11:34:02.108Z,1005.1
2023-03-29T11:38:59.253Z,1005.2
2023-03-29T11:43:58.747Z,1005.2
2023-03-29T11:48:57.829Z,1005.3
2023-03-29T11:53:58.001Z,1005.2
2023-03-29T11:59:00.133Z,1005.2
2023-03-29T12:03:58.148Z,1005.2
2023-03-29T12:08:57.274Z,1005.1
2023-03-29T12:13:57.097Z,1005
2023-03-29T12:18:57.929Z,1004.9
2023-03-29T12:23:54.569Z,1004.9
2023-03-29T12:28:54.164Z,1005
2023-03-29T12:33:54.073Z,1004.9
2023-03-29T12:38:53.658Z,1005.1
2023-03-29T12:43:51.134Z,1005.1
2023-03-29T12:48:51.314Z,1005.1
2023-03-29T12:53:51.310Z,1004.9
2023-03-29T12:58:52.692Z,1004.9
2023-03-29T13:00:38.911Z,1004.9
2023-03-29T13:05:13.436Z,1004.9
2023-03-29T13:10:12.722Z,1004.9
2023-03-29T13:15:12.719Z,1005.1
2023-03-29T13:20:09.666Z,1005.2
2023-03-29T13:25:09.306Z,1005.2
2023-03-29T13:30:08.592Z,1005.1
2023-03-29T13:35:08.208Z,1005
2023-03-29T13:40:07.594Z,1004.9
2023-03-29T13:45:07.310Z,1004.8
2023-03-29T13:50:07.465Z,1004.7
2023-03-29T13:55:07.054Z,1004.7
2023-03-29T14:04:12.472Z,1004.8
2023-03-29T14:09:12.257Z,1004.5
2023-03-29T14:14:11.777Z,1004.5
2023-03-29T14:19:13.086Z,1004.4
2023-03-29T14:24:09.335Z,1004.3
2023-03-29T14:29:09.264Z,1004.2
2023-03-29T14:34:08.960Z,1004.2
2023-03-29T14:39:08.361Z,1004.2
2023-03-29T14:44:08.048Z,1004.1
2023-03-29T14:49:08.154Z,1004
2023-03-29T14:54:07.836Z,1003.9
2023-03-29T14:59:08.868Z,1003.9
2023-03-29T15:04:06.530Z,1003.7
2023-03-29T15:09:19.100Z,1003.6
2023-03-29T15:14:05.319Z,1003.5
2023-03-29T15:19:05.158Z,1003.4
2023-03-29T15:24:02.810Z,1003.4
2023-03-29T15:34:03.073Z,1003.4
2023-03-29T15:39:06.239Z,1003.4
2023-03-29T15:44:01.488Z,1003.4
2023-03-29T15:49:00.628Z,1003.3
2023-03-29T15:54:01.740Z,1003.3
2023-03-29T15:58:57.980Z,1003.2
2023-03-29T16:03:58.862Z,1003.2
2023-03-29T16:08:57.936Z,1003.1
2023-03-29T16:13:57.293Z,1003.1
2023-03-29T16:18:56.847Z,1003
2023-03-29T16:23:56.897Z,1002.9
2023-03-29T16:28:56.535Z,1002.9
2023-03-29T16:33:57.423Z,1002.9
2023-03-29T16:38:53.977Z,1002.8
2023-03-29T16:43:53.793Z,1002.8
2023-03-29T16:48:53.506Z,1002.8
2023-03-29T16:53:53.419Z,1002.6
2023-03-29T16:58:50.748Z,1002.7
2023-03-29T17:00:37.629Z,1002.5
2023-03-29T17:05:11.681Z,1002.6
2023-03-29T17:10:10.596Z,1002.5
2023-03-29T17:15:10.037Z,1002.5
2023-03-29T17:20:09.829Z,1002.5
2023-03-29T17:25:09.657Z,1002.4
2023-03-29T17:30:09.083Z,1002.4
2023-03-29T17:35:10.058Z,1002.3
2023-03-29T17:40:06.561Z,1002.2
2023-03-29T17:45:06.678Z,1002.3
2023-03-29T17:50:06.131Z,1002.4
2023-03-29T17:55:05.628Z,1002.3
2023-03-29T19:04:10.597Z,1002.6
2023-03-29T19:09:10.137Z,1002.5
2023-03-29T19:14:09.782Z,1002.5
2023-03-29T19:19:11.176Z,1002.4
2023-03-29T19:24:08.227Z,1002.3
2023-03-29T19:29:07.426Z,1002.2
2023-03-29T19:34:07.251Z,1002
2023-03-29T19:39:06.663Z,1001.9
2023-03-29T19:44:06.177Z,1001.8
2023-03-29T19:49:06.239Z,1001.9
2023-03-29T19:54:05.885Z,1001.9
2023-03-29T19:59:06.967Z,1002
2023-03-29T20:04:05.366Z,1002
2023-03-29T20:09:04.063Z,1001.9
2023-03-29T20:14:03.462Z,1001.8
2023-03-29T20:19:03.579Z,1001.7
2023-03-29T20:24:01.239Z,1001.6
2023-03-29T20:29:00.333Z,1001.6
2023-03-29T20:33:59.599Z,1001.5
2023-03-29T20:38:59.043Z,1001.5
2023-03-29T20:43:59.201Z,1001.4
2023-03-29T20:48:58.172Z,1001.3
2023-03-29T20:53:58.322Z,1001.2
2023-03-29T21:00:44.775Z,1001.1
2023-03-29T21:05:29.027Z,1001.1
2023-03-29T21:10:29.232Z,1001
2023-03-29T21:15:28.001Z,1000.9
2023-03-29T21:20:28.209Z,1000.8
2023-03-29T21:25:28.857Z,1000.7
2023-03-29T21:30:31.469Z,1000.6
2023-03-29T21:35:26.497Z,1000.6
2023-03-29T21:40:26.393Z,1000.5
2023-03-29T21:45:27.736Z,1000.5
2023-03-29T21:50:24.887Z,1000.4
2023-03-29T21:55:24.581Z,1000.4
2023-03-29T21:59:30.078Z,1000.3
2023-03-29T22:04:45.693Z,1000.3
2023-03-29T22:09:27.940Z,1000.3
2023-03-29T22:14:28.281Z,1000.3
2023-03-29T22:19:27.091Z,1000.4
2023-03-29T22:24:27.674Z,1000.4
2023-03-29T22:29:27.375Z,1000.4
2023-03-29T22:34:28.390Z,1000.3
2023-03-29T22:39:25.678Z,1000.3
2023-03-29T22:44:25.829Z,1000.3
2023-03-29T22:49:24.858Z,1000.4
2023-03-29T22:54:25.078Z,1000.5
2023-03-29T22:59:24.992Z,1000.7
2023-03-29T23:04:25.695Z,1000.6
2023-03-29T23:09:13.938Z,1000.5
2023-03-29T23:14:12.322Z,1000.4
2023-03-29T23:19:12.059Z,1000.5
2023-03-29T23:24:13.261Z,1000.5
2023-03-29T23:29:09.521Z,1000.4
2023-03-29T23:34:09.339Z,1000.4
2023-03-29T23:39:09.027Z,1000.3
2023-03-29T23:44:08.800Z,1000.2
2023-03-29T23:49:06.342Z,1000.2
2023-03-29T23:54:06.221Z,1000.1
2023-03-29T23:59:05.680Z,1000.1
